Time;durP1;ratioP1;P1;durP2;ratioP2;P2;SDS_P1;SDS_P2;PMS_P1;PMS_P2;Temp;Humidity;BMP_temperature;BMP_pressure;BME280_temperature;BME280_humidity;BME280_pressure;Samples;Min_cycle;Max_cycle;Signal;HPM_P1;HPM_P2
2023/02/22 00:02:38;;;;;;;16.55;11.80;;;10.10;99.90;;;;;;4987148;28;20033;-56
2023/02/22 00:05:26;;;;;;;18.65;12.98;;;10.20;99.90;;;;;;4970165;28;20063;-56
2023/02/22 00:08:13;;;;;;;17.90;13.23;;;10.10;99.90;;;;;;4955654;28;20039;-59
2023/02/22 00:11:02;;;;;;;18.73;12.48;;;10.00;99.90;;;;;;4959827;28;20041;-50
2023/02/22 00:13:49;;;;;;;18.95;13.63;;;10.00;99.90;;;;;;4962379;28;20024;-53
2023/02/22 00:16:35;;;;;;;17.02;13.13;;;10.00;99.90;;;;;;4966451;28;20571;-52
2023/02/22 00:19:21;;;;;;;19.63;14.10;;;10.00;99.90;;;;;;4973661;28;20521;-49
2023/02/22 00:22:07;;;;;;;23.05;13.80;;;10.00;99.90;;;;;;4972716;28;20412;-55
2023/02/22 00:24:54;;;;;;;18.10;13.15;;;9.90;99.90;;;;;;4973060;28;20443;-55
2023/02/22 00:27:40;;;;;;;19.42;13.82;;;9.90;99.90;;;;;;4972944;28;20526;-54
2023/02/22 00:30:28;;;;;;;18.25;13.65;;;9.90;99.90;;;;;;4972628;28;20042;-53
2023/02/22 00:33:16;;;;;;;16.50;11.82;;;9.90;99.90;;;;;;4953296;29;20138;-49
2023/02/22 00:36:02;;;;;;;19.50;14.18;;;9.90;99.90;;;;;;4966681;28;20558;-54
2023/02/22 00:38:48;;;;;;;18.08;12.57;;;9.80;99.90;;;;;;4963111;28;20039;-54
2023/02/22 00:41:34;;;;;;;16.73;12.43;;;9.80;99.90;;;;;;4965203;28;20034;-55
2023/02/22 00:44:21;;;;;;;17.75;12.48;;;9.80;99.90;;;;;;4972348;28;20179;-53
2023/02/22 00:47:07;;;;;;;17.88;13.02;;;9.70;99.90;;;;;;4972905;28;20119;-55
2023/02/22 00:49:53;;;;;;;16.83;12.70;;;9.60;99.90;;;;;;4973038;28;20034;-52
2023/02/22 00:52:39;;;;;;;19.38;12.95;;;9.70;99.90;;;;;;4972644;28;20507;-54
2023/02/22 00:55:27;;;;;;;19.10;11.75;;;9.60;99.90;;;;;;4953422;29;20066;-53
2023/02/22 00:58:13;;;;;;;17.50;12.27;;;9.60;99.90;;;;;;4963241;28;20098;-50
2023/02/22 01:00:59;;;;;;;17.40;11.65;;;9.60;99.90;;;;;;4971036;28;20443;-51
2023/02/22 01:03:45;;;;;;;16.58;12.18;;;9.50;99.90;;;;;;4955799;28;20035;-55
2023/02/22 01:06:31;;;;;;;18.35;12.95;;;9.50;99.90;;;;;;4952979;29;20058;-53
2023/02/22 01:09:17;;;;;;;19.58;12.80;;;9.50;99.90;;;;;;4969886;28;20538;-56
2023/02/22 01:12:04;;;;;;;16.52;12.98;;;9.40;99.90;;;;;;4972754;28;20035;-55
2023/02/22 01:14:50;;;;;;;20.05;13.52;;;9.40;99.90;;;;;;4952745;29;20500;-56
2023/02/22 01:17:37;;;;;;;18.55;13.25;;;9.40;99.90;;;;;;4954411;28;20507;-58
2023/02/22 01:20:24;;;;;;;17.83;12.13;;;9.40;99.90;;;;;;4972578;28;20023;-58
2023/02/22 01:23:11;;;;;;;16.92;12.43;;;9.40;99.90;;;;;;4973399;28;20031;-58
2023/02/22 01:25:57;;;;;;;16.48;12.85;;;9.40;99.90;;;;;;4972109;28;20356;-58
2023/02/22 01:28:43;;;;;;;18.05;12.43;;;9.40;99.90;;;;;;4971912;28;20018;-57
2023/02/22 01:31:29;;;;;;;17.70;12.68;;;9.40;99.90;;;;;;4972714;28;20403;-58
2023/02/22 01:34:17;;;;;;;18.75;13.68;;;9.30;99.90;;;;;;4952482;29;20419;-56
2023/02/22 01:37:05;;;;;;;19.73;14.68;;;9.30;99.90;;;;;;4957023;28;20078;-57
2023/02/22 01:39:51;;;;;;;19.80;14.20;;;9.30;99.90;;;;;;4972143;28;20019;-57
2023/02/22 01:42:37;;;;;;;20.52;14.05;;;9.30;99.90;;;;;;4972228;28;20023;-55
2023/02/22 01:45:29;;;;;;;22.23;14.68;;;9.30;99.90;;;;;;4971714;28;20042;-53
2023/02/22 01:48:47;;;;;;;18.75;13.98;;;9.20;99.90;;;;;;4971692;28;20512;-56
2023/02/22 01:51:39;;;;;;;18.33;13.68;;;9.20;99.90;;;;;;4948603;28;20047;-57
2023/02/22 01:54:33;;;;;;;18.75;13.18;;;9.20;99.90;;;;;;4953943;28;20039;-57
2023/02/22 01:57:33;;;;;;;19.13;12.70;;;9.20;99.90;;;;;;4963596;28;20035;-58
2023/02/22 02:00:21;;;;;;;20.27;13.07;;;9.20;99.90;;;;;;4973132;28;20035;-52
2023/02/22 02:03:13;;;;;;;17.80;13.13;;;9.20;99.90;;;;;;4957991;28;20076;-56
2023/02/22 02:06:03;;;;;;;18.80;12.73;;;9.20;99.90;;;;;;4953429;29;20046;-58
2023/02/22 02:08:57;;;;;;;16.73;12.40;;;9.30;99.90;;;;;;4954013;28;20050;-55
2023/02/22 02:11:44;;;;;;;18.00;12.13;;;9.20;99.90;;;;;;4956963;28;20019;-51
2023/02/22 02:14:31;;;;;;;17.95;12.73;;;9.20;99.90;;;;;;4968560;28;20035;-51
2023/02/22 02:17:20;;;;;;;18.92;12.68;;;9.20;99.90;;;;;;4972836;28;20082;-55
2023/02/22 02:20:14;;;;;;;17.80;12.32;;;9.20;99.90;;;;;;4975225;28;20029;-51
2023/02/22 02:23:12;;;;;;;17.23;12.83;;;9.20;99.90;;;;;;4975858;28;20073;-51
2023/02/22 02:26:17;;;;;;;18.77;12.07;;;9.20;99.90;;;;;;4976024;28;20269;-50
2023/02/22 02:29:36;;;;;;;15.95;12.10;;;9.20;99.90;;;;;;4974947;28;20128;-52
2023/02/22 02:32:34;;;;;;;18.13;12.10;;;9.20;99.90;;;;;;4960059;28;20042;-53
2023/02/22 02:35:29;;;;;;;17.23;12.05;;;9.20;99.90;;;;;;4975175;28;20035;-53
2023/02/22 02:38:41;;;;;;;16.40;12.75;;;9.30;99.90;;;;;;4974567;28;20058;-51
2023/02/22 02:41:35;;;;;;;15.40;12.05;;;9.30;99.90;;;;;;4976214;28;20034;-52
2023/02/22 02:44:35;;;;;;;20.25;14.55;;;9.30;99.90;;;;;;4976131;28;20077;-52
2023/02/22 02:47:27;;;;;;;24.30;14.30;;;9.30;99.90;;;;;;4974594;28;20027;-53
2023/02/22 02:50:38;;;;;;;20.92;14.48;;;9.20;99.90;;;;;;4974212;28;20031;-50
2023/02/22 02:53:36;;;;;;;19.17;13.23;;;9.30;99.90;;;;;;4975906;28;20024;-52
2023/02/22 02:56:22;;;;;;;20.02;13.93;;;9.30;99.90;;;;;;4974794;28;20070;-56
2023/02/22 02:59:23;;;;;;;17.92;12.60;;;9.30;99.90;;;;;;4975205;28;20027;-52
2023/02/22 03:02:44;;;;;;;15.95;12.45;;;9.20;99.90;;;;;;4973711;28;20019;-54
2023/02/22 03:05:33;;;;;;;17.05;12.23;;;9.20;99.90;;;;;;4957611;28;20511;-59
2023/02/22 03:08:36;;;;;;;17.85;12.30;;;9.20;99.90;;;;;;4975016;28;20435;-51
2023/02/22 03:11:35;;;;;;;16.60;11.70;;;9.30;99.90;;;;;;4974321;28;20306;-49
2023/02/22 03:14:37;;;;;;;21.27;13.13;;;9.20;99.90;;;;;;4955832;28;20055;-50
2023/02/22 03:17:35;;;;;;;19.40;13.18;;;9.10;99.90;;;;;;4970351;28;20027;-54
2023/02/22 03:20:42;;;;;;;17.23;12.90;;;9.10;99.90;;;;;;4955297;29;20031;-54
2023/02/22 03:23:36;;;;;;;19.02;12.70;;;9.10;99.90;;;;;;4955447;28;20027;-50
2023/02/22 03:26:29;;;;;;;17.58;12.18;;;9.10;99.90;;;;;;4973495;28;20015;-51
2023/02/22 03:29:19;;;;;;;19.27;12.77;;;9.10;99.90;;;;;;4972084;28;20027;-55
2023/02/22 03:32:11;;;;;;;17.90;12.10;;;9.10;99.90;;;;;;4973937;28;20533;-55
2023/02/22 03:35:05;;;;;;;15.57;11.85;;;9.10;99.90;;;;;;4973666;28;20038;-52
2023/02/22 03:37:57;;;;;;;16.67;11.90;;;9.10;99.90;;;;;;4973712;28;20054;-54
2023/02/22 03:40:48;;;;;;;19.73;13.63;;;9.20;99.90;;;;;;4975157;28;20023;-57
2023/02/22 03:43:48;;;;;;;21.65;13.38;;;9.20;99.90;;;;;;4973913;28;20098;-50
2023/02/22 03:46:37;;;;;;;21.13;13.60;;;9.30;99.90;;;;;;4973328;28;20035;-55
2023/02/22 03:49:34;;;;;;;18.52;12.93;;;9.30;99.90;;;;;;4973874;28;20500;-51
2023/02/22 03:52:22;;;;;;;17.17;12.05;;;9.30;99.90;;;;;;4954194;28;20405;-53
2023/02/22 03:55:10;;;;;;;21.85;12.20;;;9.30;99.90;;;;;;4972722;28;20488;-54
2023/02/22 03:58:03;;;;;;;17.17;11.52;;;9.30;99.90;;;;;;4969134;28;20070;-51
2023/02/22 04:00:51;;;;;;;13.52;11.05;;;9.30;99.90;;;;;;4960200;28;20027;-52
2023/02/22 04:03:39;;;;;;;15.88;11.45;;;9.30;99.90;;;;;;4974317;28;20431;-52
2023/02/22 04:06:25;;;;;;;16.58;11.85;;;9.30;99.90;;;;;;4964822;28;20520;-53
2023/02/22 04:09:11;;;;;;;17.52;12.13;;;9.10;99.90;;;;;;4955807;28;20035;-52
2023/02/22 04:11:57;;;;;;;16.38;11.70;;;9.10;99.90;;;;;;4968568;28;20026;-52
2023/02/22 04:14:43;;;;;;;15.32;11.25;;;9.10;99.90;;;;;;4974003;28;20377;-53
2023/02/22 04:17:29;;;;;;;17.35;12.80;;;9.20;99.90;;;;;;4956406;28;20032;-55
2023/02/22 04:20:18;;;;;;;18.58;11.10;;;9.20;99.90;;;;;;4953421;29;20042;-51
2023/02/22 04:23:04;;;;;;;17.00;12.20;;;9.20;99.90;;;;;;4952225;29;20527;-51
2023/02/22 04:25:50;;;;;;;16.60;12.10;;;9.20;99.90;;;;;;4957551;28;20412;-52
2023/02/22 04:28:36;;;;;;;16.08;11.50;;;9.20;99.90;;;;;;4972008;28;20034;-52
2023/02/22 04:31:22;;;;;;;16.98;11.40;;;9.20;99.90;;;;;;4971240;28;20062;-53
2023/02/22 04:34:08;;;;;;;16.00;10.80;;;9.20;99.90;;;;;;4952786;29;20032;-52
2023/02/22 04:36:54;;;;;;;17.30;11.90;;;9.20;99.90;;;;;;4963564;28;20043;-51
2023/02/22 04:39:40;;;;;;;18.85;12.40;;;9.30;99.90;;;;;;4971642;28;20033;-57
2023/02/22 04:42:26;;;;;;;18.98;13.13;;;9.30;99.90;;;;;;4972402;28;20027;-52
2023/02/22 04:45:12;;;;;;;18.05;11.95;;;9.30;99.90;;;;;;4973946;28;20066;-56
2023/02/22 04:47:58;;;;;;;17.38;12.10;;;9.30;99.90;;;;;;4971625;28;20035;-55
2023/02/22 04:50:44;;;;;;;33.15;23.42;;;9.30;99.90;;;;;;4971698;28;20037;-53
2023/02/22 04:53:30;;;;;;;65.40;39.38;;;9.30;99.90;;;;;;4972163;28;20396;-57
2023/02/22 04:56:19;;;;;;;39.47;23.42;;;9.30;99.90;;;;;;4972940;28;20053;-55
2023/02/22 04:59:05;;;;;;;28.63;17.88;;;9.20;99.90;;;;;;4972576;28;20019;-53
2023/02/22 05:01:52;;;;;;;22.00;15.23;;;9.20;99.90;;;;;;4972708;28;20511;-55
2023/02/22 05:04:38;;;;;;;20.70;14.52;;;9.20;99.90;;;;;;4972309;28;20035;-56
2023/02/22 05:07:24;;;;;;;18.88;13.52;;;9.30;99.90;;;;;;4972342;28;20105;-56
2023/02/22 05:10:10;;;;;;;16.95;12.85;;;9.30;99.90;;;;;;4972441;28;20037;-57
2023/02/22 05:12:56;;;;;;;18.25;13.38;;;9.30;99.90;;;;;;4971664;28;20031;-55
2023/02/22 05:15:44;;;;;;;16.25;12.40;;;9.30;99.90;;;;;;4971638;28;20069;-58
2023/02/22 05:18:30;;;;;;;21.45;14.93;;;9.30;99.90;;;;;;4972646;28;20062;-58
2023/02/22 05:21:16;;;;;;;19.23;13.35;;;9.20;99.90;;;;;;4972934;28;20088;-56
2023/02/22 05:24:02;;;;;;;19.70;13.13;;;9.20;99.90;;;;;;4973033;28;20033;-55
2023/02/22 05:26:50;;;;;;;19.75;13.38;;;9.30;99.90;;;;;;4972494;28;20516;-57
2023/02/22 05:29:37;;;;;;;22.95;15.40;;;9.30;99.90;;;;;;4958745;28;20046;-53
2023/02/22 05:32:23;;;;;;;37.70;22.50;;;9.30;99.90;;;;;;4971888;28;20043;-56
2023/02/22 05:35:09;;;;;;;102.18;56.63;;;9.20;99.90;;;;;;4972485;28;20074;-55
2023/02/22 05:38:00;;;;;;;54.78;32.75;;;9.20;99.90;;;;;;4971307;28;20463;-55
2023/02/22 05:40:46;;;;;;;55.88;35.50;;;9.20;99.90;;;;;;4971478;28;20031;-57
2023/02/22 05:43:32;;;;;;;34.97;23.35;;;9.20;99.90;;;;;;4971070;28;20038;-57
2023/02/22 05:46:18;;;;;;;26.52;17.40;;;9.20;99.90;;;;;;4971731;28;20027;-57
2023/02/22 05:49:04;;;;;;;30.27;18.25;;;9.20;99.90;;;;;;4971659;28;20023;-55
2023/02/22 05:51:50;;;;;;;26.38;18.10;;;9.20;99.90;;;;;;4970966;28;20085;-52
2023/02/22 05:54:36;;;;;;;27.70;18.10;;;9.20;99.90;;;;;;4955814;29;20043;-56
2023/02/22 05:57:22;;;;;;;28.10;17.73;;;9.30;99.90;;;;;;4961036;28;20820;-57
2023/02/22 06:00:10;;;;;;;36.25;17.88;;;9.30;99.90;;;;;;4967429;28;20027;-56
2023/02/22 06:02:58;;;;;;;31.27;16.10;;;9.40;99.90;;;;;;4976828;28;20035;-57
2023/02/22 06:05:44;;;;;;;29.48;16.92;;;9.40;99.90;;;;;;4976753;28;20027;-56
2023/02/22 06:08:30;;;;;;;27.67;17.25;;;9.40;99.90;;;;;;4975993;28;20082;-58
2023/02/22 06:11:18;;;;;;;28.92;18.30;;;9.40;99.90;;;;;;4975748;28;20054;-57
2023/02/22 06:14:04;;;;;;;26.65;16.65;;;9.40;99.90;;;;;;4975169;28;20031;-54
2023/02/22 06:16:54;;;;;;;22.38;15.90;;;9.40;99.90;;;;;;4975775;28;20031;-56
2023/02/22 06:19:40;;;;;;;23.52;15.85;;;9.40;99.90;;;;;;4975610;28;20046;-56
2023/02/22 06:22:26;;;;;;;22.45;15.18;;;9.50;99.90;;;;;;4974545;28;20026;-55
2023/02/22 06:25:14;;;;;;;22.95;14.60;;;9.40;99.90;;;;;;4975576;28;20082;-56
2023/02/22 06:28:01;;;;;;;48.00;17.52;;;9.40;99.90;;;;;;4976272;28;20086;-52
2023/02/22 06:30:46;;;;;;;31.52;17.02;;;9.40;99.90;;;;;;4974061;28;20074;-53
2023/02/22 06:33:32;;;;;;;26.65;14.80;;;9.40;99.90;;;;;;4975255;28;20031;-55
2023/02/22 06:36:18;;;;;;;29.48;16.73;;;9.50;99.90;;;;;;4975027;28;20539;-57
2023/02/22 06:39:04;;;;;;;31.23;17.33;;;9.50;99.90;;;;;;4974517;28;20031;-57
2023/02/22 06:41:51;;;;;;;30.27;18.13;;;9.50;99.90;;;;;;4975823;28;20027;-57
2023/02/22 06:44:37;;;;;;;31.80;18.83;;;9.50;99.90;;;;;;4956618;28;20039;-53
2023/02/22 06:47:22;;;;;;;30.10;16.83;;;9.50;99.90;;;;;;4959671;28;20106;-52
2023/02/22 06:50:27;;;;;;;33.38;19.10;;;9.60;99.90;;;;;;4975698;28;20030;-57
2023/02/22 06:53:13;;;;;;;29.33;18.03;;;9.60;99.90;;;;;;4974600;28;20114;-57
2023/02/22 06:55:59;;;;;;;26.50;16.77;;;9.70;99.90;;;;;;4974157;28;20115;-57
2023/02/22 06:58:45;;;;;;;27.88;17.88;;;9.70;99.90;;;;;;4974386;28;20088;-57
2023/02/22 07:01:31;;;;;;;30.20;19.05;;;9.80;99.90;;;;;;4973935;28;20039;-57
2023/02/22 07:04:17;;;;;;;30.02;18.10;;;9.80;99.90;;;;;;4973677;28;20037;-56
2023/02/22 07:07:04;;;;;;;30.98;18.95;;;9.70;99.90;;;;;;4973658;28;20054;-55
2023/02/22 07:09:50;;;;;;;31.77;19.25;;;9.70;99.90;;;;;;4974352;28;20132;-52
2023/02/22 07:12:36;;;;;;;35.92;21.63;;;9.70;99.90;;;;;;4973453;28;20497;-52
2023/02/22 07:15:24;;;;;;;34.80;19.88;;;9.80;99.90;;;;;;4973796;28;20023;-51
2023/02/22 07:18:10;;;;;;;40.42;21.85;;;9.80;99.90;;;;;;4974010;28;20115;-54
2023/02/22 07:20:57;;;;;;;32.30;20.27;;;9.80;99.90;;;;;;4973999;28;20388;-55
2023/02/22 07:23:52;;;;;;;34.33;21.23;;;9.90;99.90;;;;;;4973523;28;20026;-56
2023/02/22 07:26:40;;;;;;;34.80;20.60;;;9.90;99.90;;;;;;4973644;28;20034;-57
2023/02/22 07:29:26;;;;;;;38.65;21.88;;;9.90;99.90;;;;;;4974125;28;20554;-53
2023/02/22 07:32:12;;;;;;;38.95;22.33;;;9.90;99.90;;;;;;4973738;28;20035;-59
2023/02/22 07:34:58;;;;;;;36.22;20.40;;;9.90;99.90;;;;;;4973650;28;20570;-54
2023/02/22 07:37:44;;;;;;;33.08;19.55;;;10.00;99.90;;;;;;4953893;29;20039;-56
2023/02/22 07:40:30;;;;;;;34.95;20.77;;;10.00;99.90;;;;;;4957352;28;20256;-54
2023/02/22 07:43:18;;;;;;;37.67;21.88;;;10.00;99.90;;;;;;4974038;28;20575;-54
2023/02/22 07:46:04;;;;;;;38.20;22.60;;;10.00;99.90;;;;;;4974320;28;20035;-55
2023/02/22 07:48:50;;;;;;;32.60;20.50;;;10.00;99.90;;;;;;4973215;28;20034;-56
2023/02/22 07:51:36;;;;;;;34.72;22.20;;;9.90;99.90;;;;;;4974267;28;20034;-55
2023/02/22 07:54:22;;;;;;;38.05;21.75;;;9.90;99.90;;;;;;4972934;28;20043;-53
2023/02/22 07:57:07;;;;;;;35.88;21.17;;;9.90;99.90;;;;;;4953941;29;20031;-55
2023/02/22 07:59:53;;;;;;;38.00;21.20;;;10.00;99.90;;;;;;4968377;28;20062;-53
2023/02/22 08:02:42;;;;;;;39.88;20.42;;;10.00;99.90;;;;;;4954149;29;20420;-52
2023/02/22 08:05:30;;;;;;;32.05;20.45;;;9.90;99.90;;;;;;4974068;28;20035;-59
2023/02/22 08:08:16;;;;;;;38.03;22.08;;;9.90;99.90;;;;;;4972547;28;20061;-55
2023/02/22 08:11:03;;;;;;;34.97;19.70;;;9.90;99.90;;;;;;4974486;28;20061;-58
2023/02/22 08:13:48;;;;;;;37.53;20.58;;;9.90;99.90;;;;;;4965489;28;20058;-56
2023/02/22 08:16:34;;;;;;;32.00;19.98;;;9.90;99.90;;;;;;4968159;28;20079;-56
2023/02/22 08:19:21;;;;;;;34.30;19.73;;;9.90;99.90;;;;;;4963517;28;20031;-53
2023/02/22 08:22:07;;;;;;;31.83;19.48;;;10.00;99.90;;;;;;4969919;28;20455;-52
2023/02/22 08:24:53;;;;;;;32.10;19.42;;;10.00;99.90;;;;;;4973258;28;20444;-54
2023/02/22 08:27:40;;;;;;;29.30;19.05;;;10.10;99.90;;;;;;4954058;28;20031;-50
2023/02/22 08:30:28;;;;;;;39.75;22.08;;;10.20;99.90;;;;;;4968708;28;20114;-55
2023/02/22 08:33:15;;;;;;;34.05;20.55;;;10.20;99.90;;;;;;4958260;28;20061;-55
2023/02/22 08:36:01;;;;;;;33.10;20.75;;;10.30;99.90;;;;;;4970923;28;20039;-53
2023/02/22 08:38:47;;;;;;;32.45;20.35;;;10.30;99.90;;;;;;4972843;28;20050;-53
2023/02/22 08:41:33;;;;;;;33.90;21.17;;;10.20;99.90;;;;;;4970813;28;20023;-51
2023/02/22 08:44:19;;;;;;;30.92;19.88;;;10.30;99.90;;;;;;4953651;28;20508;-55
2023/02/22 08:47:07;;;;;;;31.08;19.88;;;10.30;99.90;;;;;;4971359;28;20526;-56
2023/02/22 08:49:53;;;;;;;30.85;18.90;;;10.40;99.90;;;;;;4971145;28;20030;-53
2023/02/22 08:52:39;;;;;;;33.42;19.63;;;10.50;99.90;;;;;;4972650;28;20535;-55
2023/02/22 08:55:28;;;;;;;50.55;28.15;;;10.50;99.90;;;;;;4956536;28;20362;-57
2023/02/22 08:58:14;;;;;;;42.75;24.73;;;10.50;99.90;;;;;;4972161;28;20022;-56
2023/02/22 09:01:00;;;;;;;35.22;21.98;;;10.50;99.90;;;;;;4972479;28;20027;-56
2023/02/22 09:03:47;;;;;;;33.92;20.13;;;10.50;99.90;;;;;;4966678;28;20507;-58
2023/02/22 09:06:34;;;;;;;37.10;20.73;;;10.70;99.90;;;;;;4970144;28;20058;-57
2023/02/22 09:09:20;;;;;;;33.65;21.52;;;11.00;99.90;;;;;;4967096;28;20113;-57
2023/02/22 09:12:06;;;;;;;32.25;20.67;;;11.20;99.90;;;;;;4967305;28;20031;-57
2023/02/22 09:14:52;;;;;;;34.95;20.42;;;11.30;99.90;;;;;;4965175;28;20086;-52
2023/02/22 09:17:38;;;;;;;37.03;22.27;;;11.30;99.90;;;;;;4962149;28;20055;-52
2023/02/22 09:20:24;;;;;;;34.53;21.08;;;11.30;99.90;;;;;;4965169;28;20023;-51
2023/02/22 09:23:10;;;;;;;31.67;19.75;;;11.30;99.90;;;;;;4965846;28;20102;-51
2023/02/22 09:25:58;;;;;;;32.15;20.38;;;11.30;99.90;;;;;;4967002;28;20039;-50
2023/02/22 09:28:44;;;;;;;30.25;20.42;;;11.30;99.90;;;;;;4966537;28;20097;-53
2023/02/22 09:31:33;;;;;;;29.88;20.13;;;11.20;99.90;;;;;;4968071;28;20471;-51
2023/02/22 09:34:21;;;;;;;51.80;22.33;;;11.20;99.90;;;;;;4970886;28;20399;-52
2023/02/22 09:37:07;;;;;;;32.45;20.35;;;11.20;99.90;;;;;;4975608;28;20102;-54
2023/02/22 09:39:53;;;;;;;29.00;18.73;;;11.20;99.90;;;;;;4971643;28;20023;-54
2023/02/22 09:42:47;;;;;;;24.88;16.58;;;11.20;99.90;;;;;;4977669;28;20031;-53
2023/02/22 09:45:47;;;;;;;28.50;17.10;;;11.40;99.90;;;;;;4974182;28;20031;-50
2023/02/22 09:48:35;;;;;;;29.58;19.27;;;11.40;99.90;;;;;;4974781;28;20113;-51
2023/02/22 09:51:26;;;;;;;31.45;17.95;;;11.30;99.90;;;;;;4975298;28;20031;-51
2023/02/22 09:54:21;;;;;;;26.67;18.70;;;11.40;99.90;;;;;;4976995;28;20110;-49
2023/02/22 09:57:12;;;;;;;32.90;18.60;;;11.30;99.90;;;;;;4973456;28;20154;-49
2023/02/22 10:00:21;;;;;;;27.95;18.77;;;11.30;99.90;;;;;;4975560;28;20105;-53
2023/02/22 10:03:19;;;;;;;25.27;17.85;;;11.30;99.90;;;;;;4958907;28;20038;-57
2023/02/22 10:06:10;;;;;;;27.67;17.23;;;11.40;99.90;;;;;;4965027;28;20027;-50
2023/02/22 10:08:59;;;;;;;30.67;17.10;;;11.50;99.90;;;;;;4976625;28;20078;-51
2023/02/22 10:11:59;;;;;;;31.48;16.65;;;11.50;99.90;;;;;;4970317;28;20567;-53
2023/02/22 10:14:45;;;;;;;25.15;16.08;;;11.60;99.90;;;;;;4957757;28;20027;-50
2023/02/22 10:17:57;;;;;;;22.63;15.60;;;11.70;99.90;;;;;;4976139;28;20078;-48
2023/02/22 10:21:12;;;;;;;25.50;16.63;;;11.80;99.90;;;;;;4976010;28;20019;-59
2023/02/22 10:24:10;;;;;;;21.17;14.52;;;11.70;99.90;;;;;;4977701;28;20031;-58
2023/02/22 10:26:58;;;;;;;25.48;15.38;;;11.70;99.90;;;;;;4975806;28;20062;-54
2023/02/22 10:29:51;;;;;;;25.00;16.48;;;11.70;99.90;;;;;;4977321;28;20019;-57
2023/02/22 10:32:44;;;;;;;23.60;15.57;;;11.80;99.90;;;;;;4975573;28;20117;-56
2023/02/22 10:35:34;;;;;;;21.58;14.23;;;11.90;99.90;;;;;;4974941;28;20036;-55
2023/02/22 10:38:26;;;;;;;20.10;14.38;;;11.90;99.90;;;;;;4956921;28;20040;-50
2023/02/22 10:41:22;;;;;;;22.13;15.00;;;12.00;99.90;;;;;;4976273;28;20019;-53
2023/02/22 10:44:08;;;;;;;32.38;16.55;;;12.00;99.90;;;;;;4975697;28;20031;-54
2023/02/22 10:46:54;;;;;;;20.83;14.38;;;12.10;99.90;;;;;;4975862;28;20039;-53
2023/02/22 10:49:45;;;;;;;21.10;15.05;;;12.20;99.90;;;;;;4975823;28;20107;-54
2023/02/22 10:52:33;;;;;;;20.83;15.15;;;12.30;99.90;;;;;;4975180;28;20035;-57
2023/02/22 10:55:19;;;;;;;24.25;15.27;;;12.30;99.90;;;;;;4955490;29;20571;-53
2023/02/22 10:58:06;;;;;;;23.52;15.32;;;12.20;99.90;;;;;;4963825;28;20093;-50
2023/02/22 11:00:52;;;;;;;23.95;14.05;;;12.30;99.90;;;;;;4956015;29;20042;-53
2023/02/22 11:03:40;;;;;;;26.30;15.45;;;12.40;99.90;;;;;;4956015;29;20526;-56
2023/02/22 11:06:27;;;;;;;24.02;15.75;;;12.50;99.90;;;;;;4964853;28;20053;-51
2023/02/22 11:09:21;;;;;;;19.38;13.82;;;12.60;99.90;;;;;;4974101;28;20491;-54
2023/02/22 11:12:17;;;;;;;22.88;14.85;;;12.50;99.90;;;;;;4973606;28;20407;-53
2023/02/22 11:15:24;;;;;;;27.65;16.73;;;12.60;99.90;;;;;;4971900;28;20038;-52
2023/02/22 11:18:26;;;;;;;24.13;15.10;;;12.80;99.90;;;;;;4971796;28;20529;-53
2023/02/22 11:21:19;;;;;;;31.00;16.02;;;13.10;99.90;;;;;;4974377;28;20492;-51
2023/02/22 11:24:11;;;;;;;25.52;14.32;;;13.20;99.90;;;;;;4959077;28;20397;-53
2023/02/22 11:27:00;;;;;;;28.88;14.98;;;13.40;99.90;;;;;;4958987;28;20027;-52
2023/02/22 11:29:49;;;;;;;23.73;13.95;;;13.40;99.90;;;;;;4974415;28;20030;-54
2023/02/22 11:32:46;;;;;;;28.00;14.75;;;13.50;99.90;;;;;;4972810;28;20043;-57
2023/02/22 11:35:36;;;;;;;21.48;13.02;;;13.30;99.90;;;;;;4974215;28;20093;-55
2023/02/22 11:38:28;;;;;;;22.75;13.55;;;13.40;99.90;;;;;;4974214;28;20483;-55
2023/02/22 11:41:20;;;;;;;21.83;12.82;;;13.30;99.90;;;;;;4974348;28;20088;-57
2023/02/22 11:44:24;;;;;;;18.90;13.55;;;13.20;99.90;;;;;;4973900;28;20495;-53
2023/02/22 11:47:11;;;;;;;18.85;12.65;;;13.30;99.90;;;;;;4973090;28;20030;-54
2023/02/22 11:49:57;;;;;;;17.92;11.50;;;13.20;99.90;;;;;;4973018;28;20126;-55
2023/02/22 11:52:53;;;;;;;19.80;13.35;;;13.20;99.90;;;;;;4974289;28;20042;-55
2023/02/22 11:55:45;;;;;;;17.50;12.30;;;13.20;99.90;;;;;;4973772;28;20072;-54
2023/02/22 11:58:55;;;;;;;23.40;13.68;;;13.20;99.90;;;;;;4972872;28;20030;-55
2023/02/22 12:01:40;;;;;;;17.38;12.10;;;13.40;99.90;;;;;;4973528;28;20081;-58
2023/02/22 12:04:48;;;;;;;19.10;12.05;;;13.40;99.90;;;;;;4974137;28;20110;-54
2023/02/22 12:08:04;;;;;;;18.80;11.88;;;13.50;99.90;;;;;;4974014;28;20015;-54
2023/02/22 12:10:57;;;;;;;16.30;10.85;;;13.50;99.90;;;;;;4971938;28;20062;-54
2023/02/22 12:14:10;;;;;;;17.95;11.88;;;13.70;99.90;;;;;;4958369;28;20500;-53
2023/02/22 12:17:19;;;;;;;17.42;10.95;;;13.90;99.90;;;;;;4953580;29;20521;-50
2023/02/22 12:20:29;;;;;;;17.02;12.00;;;13.90;99.90;;;;;;4965908;28;20019;-53
2023/02/22 12:23:51;;;;;;;16.30;11.02;;;13.80;99.90;;;;;;4970186;28;20037;-53
2023/02/22 12:26:40;;;;;;;15.73;9.85;;;14.00;99.90;;;;;;4947780;28;20034;-55
2023/02/22 12:29:36;;;;;;;19.45;10.60;;;14.10;99.90;;;;;;4974314;28;20092;-55
2023/02/22 12:33:10;;;;;;;14.95;10.50;;;14.20;99.90;;;;;;4973297;28;20039;-53
2023/02/22 12:35:59;;;;;;;14.48;10.27;;;14.30;99.90;;;;;;4974606;28;20027;-54
2023/02/22 12:38:53;;;;;;;13.80;9.93;;;14.40;99.90;;;;;;4972272;28;20022;-53
2023/02/22 12:41:47;;;;;;;13.30;10.23;;;14.40;99.90;;;;;;4961249;28;20023;-51
2023/02/22 12:44:37;;;;;;;16.08;10.30;;;14.40;99.90;;;;;;4973113;28;20082;-54
2023/02/22 12:47:39;;;;;;;15.02;11.18;;;14.50;99.80;;;;;;4972626;28;20093;-54
2023/02/22 12:50:28;;;;;;;24.55;12.52;;;14.40;99.90;;;;;;4974487;28;20105;-55
2023/02/22 12:53:27;;;;;;;22.75;12.25;;;14.30;99.90;;;;;;4972736;28;20027;-58
2023/02/22 12:56:26;;;;;;;19.45;12.55;;;14.40;99.90;;;;;;4972202;28;20483;-52
2023/02/22 12:59:28;;;;;;;15.55;10.80;;;14.50;99.90;;;;;;4955153;28;20102;-54
2023/02/22 13:02:50;;;;;;;18.50;12.20;;;14.60;99.80;;;;;;4954671;28;20028;-55
2023/02/22 13:05:38;;;;;;;18.67;12.05;;;14.60;99.60;;;;;;4957623;28;20138;-52
2023/02/22 13:08:48;;;;;;;14.55;11.00;;;14.60;99.70;;;;;;4972138;28;20027;-55
2023/02/22 13:12:05;;;;;;;16.75;11.57;;;14.70;99.60;;;;;;4973357;28;20058;-51
2023/02/22 13:15:20;;;;;;;19.35;12.88;;;14.80;99.60;;;;;;4972272;28;20027;-55
2023/02/22 13:18:15;;;;;;;21.70;13.13;;;14.90;99.40;;;;;;4973829;28;20583;-55
2023/02/22 13:21:27;;;;;;;18.75;12.63;;;14.80;99.30;;;;;;4972256;28;20023;-58
2023/02/22 13:24:52;;;;;;;21.27;13.02;;;14.80;99.10;;;;;;4973485;28;20061;-56
2023/02/22 13:27:37;;;;;;;25.40;12.77;;;14.80;99.20;;;;;;4909837;28;20047;-52
2023/02/22 13:30:55;;;;;;;21.25;13.63;;;14.70;99.30;;;;;;4963618;28;20444;-55
2023/02/22 13:34:04;;;;;;;20.20;11.35;;;14.60;99.20;;;;;;4952893;29;20194;-49
2023/02/22 13:36:50;;;;;;;13.93;10.45;;;14.50;99.50;;;;;;4939380;29;20027;-51
2023/02/22 13:39:45;;;;;;;16.05;11.10;;;14.50;99.30;;;;;;4967950;28;20031;-52
2023/02/22 13:42:34;;;;;;;;;;;14.40;99.50;;;;;;4974178;28;20503;-56
2023/02/22 13:45:32;;;;;;;18.40;11.95;;;14.30;99.90;;;;;;4953934;29;19914;-49
2023/02/22 13:48:41;;;;;;;25.30;18.08;;;14.50;99.70;;;;;;4955343;28;20027;-50
2023/02/22 13:52:10;;;;;;;18.83;11.95;;;14.60;99.60;;;;;;4973405;28;20464;-55
2023/02/22 13:55:03;;;;;;;14.27;11.43;;;14.70;99.40;;;;;;4972464;28;20035;-52
2023/02/22 13:58:00;;;;;;;17.23;12.13;;;14.70;99.50;;;;;;4973068;28;20528;-53
2023/02/22 14:00:54;;;;;;;20.02;13.13;;;14.80;99.30;;;;;;4971954;28;20037;-57
2023/02/22 14:03:40;;;;;;;23.05;13.70;;;14.80;99.20;;;;;;4972037;28;20423;-54
2023/02/22 14:06:38;;;;;;;17.80;11.98;;;14.70;99.30;;;;;;4971152;28;20031;-55
2023/02/22 14:09:44;;;;;;;15.98;12.55;;;14.50;99.50;;;;;;4967875;28;20027;-56
2023/02/22 14:12:30;;;;;;;17.65;12.02;;;14.60;99.70;;;;;;4968131;28;20035;-58
2023/02/22 14:15:21;;;;;;;19.98;11.77;;;14.60;99.60;;;;;;4965476;28;20063;-59
2023/02/22 14:18:15;;;;;;;16.48;12.27;;;14.50;99.60;;;;;;4958677;28;20025;-60
2023/02/22 14:21:21;;;;;;;18.85;12.60;;;14.60;99.50;;;;;;4963944;28;20097;-59
2023/02/22 14:24:12;;;;;;;21.52;12.82;;;14.60;99.40;;;;;;4975323;28;20035;-55
2023/02/22 14:27:02;;;;;;;19.77;11.70;;;14.60;99.30;;;;;;4975059;28;20521;-59
2023/02/22 14:29:54;;;;;;;16.70;13.00;;;14.60;99.50;;;;;;4973478;28;20114;-57
2023/02/22 14:32:40;;;;;;;15.88;11.73;;;14.60;99.50;;;;;;4974575;28;20070;-61
2023/02/22 14:35:37;;;;;;;19.17;13.32;;;14.50;99.50;;;;;;4974981;28;20511;-60
2023/02/22 14:38:23;;;;;;;16.45;12.48;;;14.40;99.60;;;;;;4975194;28;20019;-56